Time;durP1;ratioP1;P1;durP2;ratioP2;P2;SDS_P1;SDS_P2;PMS_P1;PMS_P2;Temp;Humidity;BMP_temperature;BMP_pressure;BME280_temperature;BME280_humidity;BME280_pressure;Samples;Min_cycle;Max_cycle;Signal;HPM_P1;HPM_P2
2022/10/15 00:00:30;;;;;;;50.88;33.38;;;;;;;;;;5011383;28;20056;-73
2022/10/15 00:02:56;;;;;;;57.03;34.72;;;;;;;;;;5011427;28;20057;-73
2022/10/15 00:05:22;;;;;;;50.53;35.25;;;;;;;;;;5011572;28;20131;-73
2022/10/15 00:07:48;;;;;;;47.50;35.28;;;;;;;;;;5011538;28;20059;-73
2022/10/15 00:10:15;;;;;;;53.72;37.20;;;;;;;;;;5014106;28;20128;-73
2022/10/15 00:12:41;;;;;;;51.88;33.58;;;;;;;;;;5031128;28;20053;-73
2022/10/15 00:15:08;;;;;;;48.92;35.05;;;;;;;;;;5031369;28;20382;-73
2022/10/15 00:17:35;;;;;;;51.35;33.65;;;;;;;;;;5030861;28;20053;-73
2022/10/15 00:20:01;;;;;;;52.08;35.17;;;;;;;;;;5019043;28;20049;-73
2022/10/15 00:22:27;;;;;;;52.53;36.58;;;;;;;;;;5039155;28;20059;-73
2022/10/15 00:24:53;;;;;;;47.92;35.47;;;;;;;;;;5027388;28;20045;-73
2022/10/15 00:27:19;;;;;;;49.85;36.95;;;;;;;;;;5020341;28;20379;-73
2022/10/15 00:29:46;;;;;;;45.58;32.30;;;;;;;;;;5029661;28;20099;-74
2022/10/15 00:32:12;;;;;;;48.35;32.95;;;;;;;;;;5030992;28;20059;-73
2022/10/15 00:34:38;;;;;;;54.17;35.85;;;;;;;;;;5028897;28;20094;-73
2022/10/15 00:37:04;;;;;;;46.28;32.42;;;;;;;;;;5030873;28;20041;-73
2022/10/15 00:39:30;;;;;;;47.20;35.78;;;;;;;;;;5033261;28;20048;-73
2022/10/15 00:41:56;;;;;;;69.63;35.67;;;;;;;;;;5035823;28;20052;-73
2022/10/15 00:44:28;;;;;;;48.85;35.88;;;;;;;;;;5030455;28;20102;-73
2022/10/15 00:46:56;;;;;;;44.50;36.07;;;;;;;;;;5030766;28;20048;-73
2022/10/15 00:49:26;;;;;;;50.97;37.53;;;;;;;;;;5030844;28;20340;-73
2022/10/15 00:51:54;;;;;;;48.50;36.15;;;;;;;;;;5030668;28;20045;-73
2022/10/15 00:54:20;;;;;;;50.10;39.22;;;;;;;;;;5041256;28;20040;-73
2022/10/15 00:56:47;;;;;;;47.88;33.33;;;;;;;;;;5015565;28;20413;-73
2022/10/15 00:59:15;;;;;;;55.53;36.22;;;;;;;;;;5030923;28;20048;-73
2022/10/15 01:01:41;;;;;;;49.25;36.40;;;;;;;;;;5031404;28;20513;-73
2022/10/15 01:04:08;;;;;;;51.55;37.65;;;;;;;;;;5034510;28;20044;-73
2022/10/15 01:06:34;;;;;;;51.50;37.25;;;;;;;;;;5051129;28;20045;-73
2022/10/15 01:09:00;;;;;;;52.33;36.35;;;;;;;;;;5034029;28;20132;-73
2022/10/15 01:11:30;;;;;;;61.90;39.17;;;;;;;;;;5030767;28;20057;-73
2022/10/15 01:13:56;;;;;;;52.80;37.92;;;;;;;;;;5014360;28;20042;-73
2022/10/15 01:16:27;;;;;;;59.00;37.72;;;;;;;;;;4998651;28;20041;-73
2022/10/15 01:18:56;;;;;;;52.15;38.22;;;;;;;;;;5014062;28;20490;-73
2022/10/15 01:21:27;;;;;;;65.63;39.67;;;;;;;;;;5014845;28;20132;-73
2022/10/15 01:23:53;;;;;;;55.15;36.80;;;;;;;;;;5014372;28;20053;-73
2022/10/15 01:26:42;;;;;;;54.03;40.60;;;;;;;;;;5014070;28;20157;-73
2022/10/15 01:29:17;;;;;;;57.65;41.40;;;;;;;;;;5012936;28;20057;-73
2022/10/15 01:31:48;;;;;;;51.08;37.95;;;;;;;;;;4998143;28;20052;-73
2022/10/15 01:34:20;;;;;;;52.03;36.92;;;;;;;;;;5013845;28;20049;-73
2022/10/15 01:36:51;;;;;;;54.73;38.07;;;;;;;;;;5014165;28;20520;-73
2022/10/15 01:39:27;;;;;;;52.20;36.08;;;;;;;;;;5014026;28;20103;-73
2022/10/15 01:41:55;;;;;;;50.58;35.90;;;;;;;;;;5006366;28;20080;-73
2022/10/15 01:44:24;;;;;;;55.15;38.03;;;;;;;;;;5006306;28;20050;-73
2022/10/15 01:46:53;;;;;;;50.80;36.63;;;;;;;;;;5012279;28;20093;-73
2022/10/15 01:49:20;;;;;;;48.38;36.10;;;;;;;;;;5013552;28;20049;-73
2022/10/15 01:51:47;;;;;;;53.00;33.85;;;;;;;;;;5013630;28;20089;-73
2022/10/15 01:54:16;;;;;;;55.92;35.35;;;;;;;;;;5013525;28;20053;-73
2022/10/15 01:56:48;;;;;;;53.13;34.55;;;;;;;;;;5013938;28;20091;-73
2022/10/15 01:59:14;;;;;;;47.30;33.10;;;;;;;;;;5015069;28;20084;-73
2022/10/15 02:01:44;;;;;;;46.35;34.08;;;;;;;;;;5014211;28;20371;-73
2022/10/15 02:04:23;;;;;;;47.53;34.53;;;;;;;;;;5013952;28;20128;-73
2022/10/15 02:06:53;;;;;;;42.72;31.90;;;;;;;;;;4997505;28;20046;-73
2022/10/15 02:09:24;;;;;;;46.58;29.65;;;;;;;;;;5013841;28;20081;-73
2022/10/15 02:12:00;;;;;;;48.15;32.90;;;;;;;;;;5013365;28;20073;-73
2022/10/15 02:14:34;;;;;;;45.75;30.13;;;;;;;;;;5030283;28;20408;-73
2022/10/15 02:17:08;;;;;;;39.33;27.83;;;;;;;;;;5030405;28;20088;-73
2022/10/15 02:20:03;;;;;;;38.53;29.67;;;;;;;;;;5030097;28;20052;-73
2022/10/15 02:22:36;;;;;;;46.22;29.17;;;;;;;;;;4988731;28;20045;-73
2022/10/15 02:25:04;;;;;;;44.03;26.98;;;;;;;;;;5030261;28;20058;-73
2022/10/15 02:27:32;;;;;;;39.20;28.58;;;;;;;;;;5030138;28;20053;-73
2022/10/15 02:29:59;;;;;;;36.80;24.55;;;;;;;;;;5029858;28;20080;-73
2022/10/15 02:32:26;;;;;;;32.90;24.92;;;;;;;;;;5029896;28;20061;-73
2022/10/15 02:34:53;;;;;;;38.65;25.50;;;;;;;;;;5030065;28;20099;-73
2022/10/15 02:37:22;;;;;;;36.25;23.83;;;;;;;;;;5029692;28;20061;-73
2022/10/15 02:39:48;;;;;;;39.17;26.00;;;;;;;;;;5029710;28;20053;-73
2022/10/15 02:42:16;;;;;;;32.85;22.90;;;;;;;;;;5013426;28;20045;-73
2022/10/15 02:44:42;;;;;;;34.33;23.83;;;;;;;;;;5029726;28;20072;-73
2022/10/15 02:47:09;;;;;;;34.83;24.05;;;;;;;;;;5029950;28;20053;-73
2022/10/15 02:49:35;;;;;;;34.70;23.20;;;;;;;;;;5029484;28;20052;-73
2022/10/15 02:52:01;;;;;;;38.70;24.58;;;;;;;;;;5029494;28;20037;-73
2022/10/15 02:54:27;;;;;;;40.67;26.42;;;;;;;;;;5029451;28;20081;-73
2022/10/15 02:56:53;;;;;;;41.35;29.33;;;;;;;;;;5030036;28;20350;-73
2022/10/15 02:59:19;;;;;;;41.03;30.13;;;;;;;;;;5029474;28;20045;-73
2022/10/15 03:01:45;;;;;;;42.13;26.52;;;;;;;;;;5046104;28;20514;-73
2022/10/15 03:04:11;;;;;;;43.05;28.92;;;;;;;;;;5029306;28;20497;-73
2022/10/15 03:06:37;;;;;;;50.40;31.17;;;;;;;;;;5029294;28;20045;-73
2022/10/15 03:09:04;;;;;;;46.22;30.90;;;;;;;;;;5027010;28;20131;-73
2022/10/15 03:11:30;;;;;;;46.03;30.25;;;;;;;;;;5030980;28;20060;-73
2022/10/15 03:13:56;;;;;;;47.22;31.92;;;;;;;;;;5032381;28;20037;-73
2022/10/15 03:16:22;;;;;;;47.45;32.60;;;;;;;;;;5032558;28;20055;-73
2022/10/15 03:18:48;;;;;;;46.58;31.55;;;;;;;;;;5015657;28;20068;-73
2022/10/15 03:21:14;;;;;;;47.40;32.83;;;;;;;;;;5028856;28;20523;-73
2022/10/15 03:23:41;;;;;;;44.25;33.40;;;;;;;;;;5025534;28;20139;-73
2022/10/15 03:26:07;;;;;;;47.35;32.42;;;;;;;;;;5032448;28;20713;-73
2022/10/15 03:28:33;;;;;;;50.50;34.00;;;;;;;;;;5032294;28;20229;-73
2022/10/15 03:30:59;;;;;;;54.90;35.20;;;;;;;;;;5031054;28;20401;-73
2022/10/15 03:33:25;;;;;;;50.70;32.65;;;;;;;;;;5032224;28;20053;-73
2022/10/15 03:35:52;;;;;;;48.55;33.22;;;;;;;;;;5032456;28;20123;-73
2022/10/15 03:38:18;;;;;;;54.10;33.83;;;;;;;;;;5032233;28;20224;-73
2022/10/15 03:40:45;;;;;;;48.53;34.40;;;;;;;;;;5031657;28;20096;-73
2022/10/15 03:43:11;;;;;;;54.70;33.53;;;;;;;;;;5031978;28;20397;-73
2022/10/15 03:45:37;;;;;;;52.63;33.35;;;;;;;;;;5031830;28;20045;-73
2022/10/15 03:48:03;;;;;;;51.58;33.90;;;;;;;;;;5032110;28;20076;-73
2022/10/15 03:50:29;;;;;;;49.15;31.73;;;;;;;;;;5011191;28;20375;-73
2022/10/15 03:52:55;;;;;;;43.55;31.80;;;;;;;;;;5031811;28;20436;-73
2022/10/15 03:55:21;;;;;;;54.85;31.88;;;;;;;;;;5031844;28;20076;-73
2022/10/15 03:57:47;;;;;;;44.35;30.58;;;;;;;;;;5031141;28;20049;-73
2022/10/15 04:00:14;;;;;;;45.03;31.00;;;;;;;;;;5031116;28;20155;-73
2022/10/15 04:02:40;;;;;;;46.10;31.30;;;;;;;;;;5034782;28;20052;-73
2022/10/15 04:05:06;;;;;;;43.17;33.28;;;;;;;;;;5031245;28;20064;-73
2022/10/15 04:07:32;;;;;;;40.25;31.38;;;;;;;;;;5030848;28;20191;-73
2022/10/15 04:09:58;;;;;;;45.80;32.13;;;;;;;;;;5031151;28;20052;-73
2022/10/15 04:12:24;;;;;;;42.08;30.85;;;;;;;;;;5027537;28;20133;-73
2022/10/15 04:14:51;;;;;;;49.60;33.33;;;;;;;;;;5011235;28;20045;-73
2022/10/15 04:17:17;;;;;;;41.83;31.85;;;;;;;;;;5011330;28;20100;-73
2022/10/15 04:19:43;;;;;;;48.20;31.20;;;;;;;;;;4994755;28;20049;-73
2022/10/15 04:22:09;;;;;;;47.53;34.33;;;;;;;;;;5011338;28;20419;-73
2022/10/15 04:24:35;;;;;;;53.35;32.50;;;;;;;;;;5009933;28;20409;-73
2022/10/15 04:27:01;;;;;;;49.03;33.97;;;;;;;;;;5013069;28;20046;-73
2022/10/15 04:29:27;;;;;;;49.03;34.03;;;;;;;;;;5010629;28;20048;-73
2022/10/15 04:31:53;;;;;;;46.45;33.25;;;;;;;;;;5010890;28;20049;-73
2022/10/15 04:34:19;;;;;;;51.22;34.83;;;;;;;;;;5010785;28;20489;-73
2022/10/15 04:36:45;;;;;;;48.58;32.20;;;;;;;;;;4995003;28;20046;-73
2022/10/15 04:39:11;;;;;;;50.10;33.63;;;;;;;;;;5010818;28;20045;-73
2022/10/15 04:41:37;;;;;;;51.72;32.40;;;;;;;;;;5010517;28;20087;-73
2022/10/15 04:44:03;;;;;;;53.63;35.88;;;;;;;;;;5010367;28;20053;-72
2022/10/15 04:46:30;;;;;;;47.28;32.85;;;;;;;;;;5010796;28;20108;-72
2022/10/15 04:48:57;;;;;;;51.63;33.88;;;;;;;;;;5010884;28;20041;-72
2022/10/15 04:51:24;;;;;;;43.42;31.88;;;;;;;;;;5000762;28;20436;-72
2022/10/15 04:53:50;;;;;;;46.25;31.88;;;;;;;;;;5010522;28;20053;-72
2022/10/15 04:56:18;;;;;;;43.80;29.83;;;;;;;;;;4994512;28;20052;-72
2022/10/15 04:58:45;;;;;;;46.95;32.97;;;;;;;;;;5010564;28;20470;-72
2022/10/15 05:01:12;;;;;;;45.40;31.40;;;;;;;;;;4994569;28;20053;-72
2022/10/15 05:03:40;;;;;;;46.38;33.25;;;;;;;;;;5010671;28;20128;-72
2022/10/15 05:06:10;;;;;;;46.05;34.47;;;;;;;;;;5010524;28;20061;-72
2022/10/15 05:08:37;;;;;;;45.30;33.25;;;;;;;;;;5010332;28;20498;-72
2022/10/15 05:11:07;;;;;;;44.42;32.47;;;;;;;;;;5003872;28;20100;-72
2022/10/15 05:13:33;;;;;;;54.10;33.80;;;;;;;;;;5043624;28;20432;-72
2022/10/15 05:16:19;;;;;;;48.50;33.28;;;;;;;;;;5027071;28;20127;-72
2022/10/15 05:18:46;;;;;;;43.72;32.95;;;;;;;;;;5026588;28;20053;-72
2022/10/15 05:21:13;;;;;;;44.75;32.70;;;;;;;;;;5026906;28;20454;-72
2022/10/15 05:23:39;;;;;;;51.97;34.00;;;;;;;;;;5024118;28;20057;-72
2022/10/15 05:26:10;;;;;;;51.13;32.67;;;;;;;;;;5010679;28;20334;-72
2022/10/15 05:28:37;;;;;;;49.45;34.17;;;;;;;;;;5026628;28;20045;-72
2022/10/15 05:31:07;;;;;;;43.65;33.15;;;;;;;;;;5026995;28;20104;-72
2022/10/15 05:33:33;;;;;;;48.42;33.75;;;;;;;;;;5026917;28;20053;-72
2022/10/15 05:36:16;;;;;;;51.03;32.47;;;;;;;;;;5026772;28;20052;-72
2022/10/15 05:38:50;;;;;;;50.45;35.40;;;;;;;;;;5026118;28;20476;-72
2022/10/15 05:41:16;;;;;;;52.00;34.40;;;;;;;;;;5025856;28;20050;-72
2022/10/15 05:43:42;;;;;;;45.00;31.00;;;;;;;;;;5026800;28;20054;-72
2022/10/15 05:46:09;;;;;;;52.53;34.08;;;;;;;;;;5027292;28;20060;-72
2022/10/15 05:48:35;;;;;;;44.40;32.67;;;;;;;;;;5029577;28;20130;-72
2022/10/15 05:51:05;;;;;;;54.90;35.58;;;;;;;;;;5030437;28;20041;-72
2022/10/15 05:53:31;;;;;;;50.85;34.85;;;;;;;;;;5029982;28;20516;-72
2022/10/15 05:55:57;;;;;;;52.78;35.53;;;;;;;;;;5030538;28;20045;-72
2022/10/15 05:58:28;;;;;;;47.80;33.05;;;;;;;;;;5030335;28;20060;-72
2022/10/15 06:00:57;;;;;;;51.58;35.30;;;;;;;;;;5036156;28;20045;-72
2022/10/15 06:03:24;;;;;;;50.92;34.55;;;;;;;;;;5014070;28;20064;-73
2022/10/15 06:05:50;;;;;;;59.80;40.88;;;;;;;;;;5030493;28;20053;-72
2022/10/15 06:08:16;;;;;;;54.67;37.45;;;;;;;;;;5013898;28;20103;-72
2022/10/15 06:10:43;;;;;;;59.15;37.45;;;;;;;;;;5031162;28;20046;-73
2022/10/15 06:13:09;;;;;;;53.03;35.28;;;;;;;;;;5024433;28;20037;-72
2022/10/15 06:15:39;;;;;;;54.03;37.78;;;;;;;;;;5013526;28;20072;-72
2022/10/15 06:18:05;;;;;;;54.55;35.60;;;;;;;;;;5016800;28;20100;-72
2022/10/15 06:20:32;;;;;;;55.03;37.33;;;;;;;;;;5013608;28;20045;-72
2022/10/15 06:22:58;;;;;;;57.15;38.72;;;;;;;;;;5021691;28;20416;-72
2022/10/15 06:25:25;;;;;;;59.42;41.20;;;;;;;;;;5027905;28;20421;-72
2022/10/15 06:27:51;;;;;;;59.92;38.03;;;;;;;;;;5013714;28;20058;-72
2022/10/15 06:30:17;;;;;;;60.55;40.20;;;;;;;;;;5013185;28;20128;-73
2022/10/15 06:32:50;;;;;;;57.08;38.58;;;;;;;;;;5016213;28;20045;-72
2022/10/15 06:35:17;;;;;;;65.65;40.97;;;;;;;;;;5013620;28;20041;-72
2022/10/15 06:37:43;;;;;;;58.50;41.10;;;;;;;;;;5014859;28;20119;-72
2022/10/15 06:40:10;;;;;;;58.22;38.00;;;;;;;;;;5013330;28;20141;-72
2022/10/15 06:42:36;;;;;;;60.70;43.53;;;;;;;;;;5021262;28;20064;-73
2022/10/15 06:45:02;;;;;;;61.60;42.80;;;;;;;;;;5017227;28;20517;-73
2022/10/15 06:47:28;;;;;;;71.15;44.47;;;;;;;;;;5005386;28;20049;-73
2022/10/15 06:49:54;;;;;;;59.80;41.85;;;;;;;;;;5017136;28;20072;-73
2022/10/15 06:52:21;;;;;;;63.45;43.53;;;;;;;;;;5008984;28;20053;-72
2022/10/15 06:54:47;;;;;;;61.63;41.78;;;;;;;;;;5002031;28;20049;-72
2022/10/15 06:57:13;;;;;;;68.55;44.40;;;;;;;;;;5012039;28;20126;-73
2022/10/15 06:59:39;;;;;;;68.63;42.35;;;;;;;;;;5011383;28;20053;-73
2022/10/15 07:02:05;;;;;;;63.55;42.13;;;;;;;;;;4996623;28;20051;-73
2022/10/15 07:04:31;;;;;;;65.07;44.45;;;;;;;;;;5006296;28;20132;-73
2022/10/15 07:06:57;;;;;;;64.82;45.58;;;;;;;;;;5000294;28;20050;-73
2022/10/15 07:09:23;;;;;;;67.85;45.47;;;;;;;;;;4980225;28;20056;-73
2022/10/15 07:11:49;;;;;;;60.20;42.42;;;;;;;;;;5022435;28;20136;-73
2022/10/15 07:14:15;;;;;;;75.50;45.97;;;;;;;;;;5032359;28;20041;-73
2022/10/15 07:16:41;;;;;;;63.95;43.20;;;;;;;;;;5032453;28;20751;-73
2022/10/15 07:19:08;;;;;;;63.30;45.08;;;;;;;;;;5031345;28;20098;-73
2022/10/15 07:21:34;;;;;;;76.93;46.30;;;;;;;;;;5019136;28;20489;-73
2022/10/15 07:24:00;;;;;;;64.85;44.30;;;;;;;;;;5017965;28;20053;-72
2022/10/15 07:26:28;;;;;;;70.53;46.00;;;;;;;;;;5032144;28;20084;-73
2022/10/15 07:28:54;;;;;;;66.43;43.85;;;;;;;;;;5031862;28;20049;-72
2022/10/15 07:31:20;;;;;;;71.47;45.45;;;;;;;;;;5016353;28;20338;-73
2022/10/15 07:33:46;;;;;;;63.65;43.70;;;;;;;;;;5032239;28;20049;-73
2022/10/15 07:36:12;;;;;;;83.07;47.25;;;;;;;;;;5048893;28;20072;-73
2022/10/15 07:38:41;;;;;;;69.35;46.25;;;;;;;;;;5032373;28;20056;-73
2022/10/15 07:41:08;;;;;;;79.03;48.60;;;;;;;;;;5015510;28;20129;-73
2022/10/15 07:43:35;;;;;;;71.65;46.92;;;;;;;;;;5030984;28;20576;-73
2022/10/15 07:46:02;;;;;;;70.32;45.22;;;;;;;;;;5032061;28;20048;-73
2022/10/15 07:48:28;;;;;;;72.32;46.97;;;;;;;;;;5031993;28;20047;-73
2022/10/15 07:50:58;;;;;;;78.13;49.03;;;;;;;;;;5015302;28;20047;-73
2022/10/15 07:53:24;;;;;;;74.20;46.63;;;;;;;;;;5028803;28;20045;-72
2022/10/15 07:55:51;;;;;;;68.57;45.33;;;;;;;;;;5027197;28;20048;-73
2022/10/15 07:58:17;;;;;;;77.15;47.95;;;;;;;;;;5047742;28;20049;-72
2022/10/15 08:00:43;;;;;;;79.55;47.22;;;;;;;;;;5014597;28;20041;-73
2022/10/15 08:03:09;;;;;;;77.30;46.42;;;;;;;;;;5031327;28;20462;-73
2022/10/15 08:05:35;;;;;;;76.03;47.60;;;;;;;;;;5030436;28;20037;-73
2022/10/15 08:08:02;;;;;;;80.85;47.67;;;;;;;;;;5014656;28;20405;-73
2022/10/15 08:10:28;;;;;;;72.60;43.75;;;;;;;;;;5030703;28;20444;-73
2022/10/15 08:12:54;;;;;;;87.07;48.15;;;;;;;;;;5021323;28;20140;-73
2022/10/15 08:15:20;;;;;;;88.68;48.60;;;;;;;;;;5016212;28;20124;-73
2022/10/15 08:17:46;;;;;;;74.63;46.22;;;;;;;;;;5008323;28;20049;-73
2022/10/15 08:20:12;;;;;;;86.20;48.25;;;;;;;;;;5011239;28;20057;-73
2022/10/15 08:22:38;;;;;;;74.82;46.33;;;;;;;;;;5013307;28;20141;-73
2022/10/15 08:25:05;;;;;;;98.30;48.55;;;;;;;;;;5022808;28;20049;-73
2022/10/15 08:27:31;;;;;;;81.22;47.55;;;;;;;;;;5012920;28;20114;-73
2022/10/15 08:29:57;;;;;;;87.50;48.13;;;;;;;;;;5001894;28;20128;-73
2022/10/15 08:32:23;;;;;;;80.50;48.45;;;;;;;;;;5008248;28;20081;-73
2022/10/15 08:34:49;;;;;;;79.43;47.03;;;;;;;;;;5028270;28;20382;-73
2022/10/15 08:37:15;;;;;;;78.20;46.60;;;;;;;;;;4994276;28;20152;-73
2022/10/15 08:39:41;;;;;;;84.50;47.55;;;;;;;;;;5020832;28;20140;-73
2022/10/15 08:42:15;;;;;;;80.97;47.65;;;;;;;;;;5011951;28;20060;-73
2022/10/15 08:44:44;;;;;;;74.85;42.42;;;;;;;;;;5010624;28;20045;-73
2022/10/15 08:47:13;;;;;;;70.85;43.83;;;;;;;;;;5032846;28;20076;-73
2022/10/15 08:49:51;;;;;;;72.72;43.00;;;;;;;;;;4994293;28;20343;-73
2022/10/15 08:52:26;;;;;;;74.63;42.80;;;;;;;;;;5003358;28;20053;-73
2022/10/15 08:54:54;;;;;;;74.25;42.17;;;;;;;;;;5003573;28;20350;-73
2022/10/15 08:57:26;;;;;;;71.20;42.35;;;;;;;;;;5010729;28;20056;-73
2022/10/15 09:00:01;;;;;;;67.72;44.28;;;;;;;;;;5002581;28;20466;-73
2022/10/15 09:02:33;;;;;;;78.75;47.13;;;;;;;;;;5029077;28;20049;-73
2022/10/15 09:05:05;;;;;;;67.47;42.38;;;;;;;;;;5004800;28;20052;-73
2022/10/15 09:07:55;;;;;;;69.32;40.28;;;;;;;;;;4994358;28;20188;-73
2022/10/15 09:10:27;;;;;;;57.85;34.63;;;;;;;;;;5011542;28;20136;-73
2022/10/15 09:12:56;;;;;;;55.42;34.30;;;;;;;;;;5042213;28;20483;-73
2022/10/15 09:15:23;;;;;;;53.00;32.85;;;;;;;;;;5024954;28;20741;-73
2022/10/15 09:17:51;;;;;;;60.38;36.35;;;;;;;;;;5010519;28;20524;-73
2022/10/15 09:20:19;;;;;;;53.83;32.60;;;;;;;;;;5026781;28;20061;-73
2022/10/15 09:22:47;;;;;;;47.38;31.20;;;;;;;;;;5029175;28;20068;-73
2022/10/15 09:25:18;;;;;;;51.72;32.67;;;;;;;;;;5030581;28;20081;-73
2022/10/15 09:27:46;;;;;;;44.10;30.80;;;;;;;;;;5014274;28;20045;-73
2022/10/15 09:30:21;;;;;;;51.47;31.30;;;;;;;;;;5030913;28;20053;-73
2022/10/15 09:33:03;;;;;;;49.55;32.13;;;;;;;;;;5013900;28;20079;-73
2022/10/15 09:35:36;;;;;;;46.55;30.55;;;;;;;;;;5014195;28;20053;-73
2022/10/15 09:38:05;;;;;;;48.30;31.00;;;;;;;;;;5030698;28;20061;-73
2022/10/15 09:40:47;;;;;;;54.92;33.78;;;;;;;;;;5030519;28;20161;-73
2022/10/15 09:43:13;;;;;;;52.72;33.30;;;;;;;;;;5043942;28;20393;-73
2022/10/15 09:45:39;;;;;;;48.10;29.80;;;;;;;;;;5014117;28;20057;-73
2022/10/15 09:48:14;;;;;;;50.33;31.48;;;;;;;;;;5030131;28;20490;-73
2022/10/15 09:50:43;;;;;;;44.72;29.58;;;;;;;;;;5046348;28;20049;-73
2022/10/15 09:53:22;;;;;;;41.50;28.52;;;;;;;;;;5030434;28;20444;-73
2022/10/15 09:56:04;;;;;;;38.55;26.33;;;;;;;;;;5013952;28;20087;-73
2022/10/15 09:58:37;;;;;;;38.53;23.17;;;;;;;;;;5029196;28;20084;-73
2022/10/15 10:01:03;;;;;;;;;;;;;;;;;;5030770;28;20049;-73
2022/10/15 10:03:31;;;;;;;33.20;21.75;;;;;;;;;;5030392;28;20156;-73
2022/10/15 10:06:07;;;;;;;37.78;21.77;;;;;;;;;;5030069;28;20107;-73
2022/10/15 10:08:35;;;;;;;32.85;20.30;;;;;;;;;;5028400;28;20054;-73
2022/10/15 10:11:02;;;;;;;42.05;24.08;;;;;;;;;;5032913;28;20126;-73
2022/10/15 10:13:31;;;;;;;31.13;22.75;;;;;;;;;;5018789;28;20054;-73
2022/10/15 10:16:02;;;;;;;35.33;22.92;;;;;;;;;;5013169;28;20053;-73
2022/10/15 10:18:30;;;;;;;35.75;22.98;;;;;;;;;;4990573;28;20053;-73
2022/10/15 10:21:04;;;;;;;34.22;20.83;;;;;;;;;;4985078;28;20056;-73
2022/10/15 10:23:38;;;;;;;32.85;21.10;;;;;;;;;;5013322;28;20084;-73
2022/10/15 10:26:09;;;;;;;33.40;21.98;;;;;;;;;;5015362;28;20103;-73
2022/10/15 10:28:41;;;;;;;30.63;20.00;;;;;;;;;;5017864;28;20041;-73
2022/10/15 10:31:08;;;;;;;31.02;20.30;;;;;;;;;;5013126;28;20096;-73
2022/10/15 10:33:34;;;;;;;40.45;23.02;;;;;;;;;;5012576;28;20045;-73
2022/10/15 10:36:00;;;;;;;33.33;22.23;;;;;;;;;;5014109;28;20521;-73
2022/10/15 10:38:37;;;;;;;35.30;22.27;;;;;;;;;;4996733;28;20103;-73
2022/10/15 10:41:08;;;;;;;30.77;18.83;;;;;;;;;;5012865;28;20053;-73
2022/10/15 10:43:35;;;;;;;37.45;21.65;;;;;;;;;;5011950;28;20042;-73
2022/10/15 10:46:14;;;;;;;32.00;21.45;;;;;;;;;;5024421;28;20589;-73
2022/10/15 10:48:41;;;;;;;31.58;18.92;;;;;;;;;;5005813;28;20052;-73
2022/10/15 10:51:07;;;;;;;32.35;21.25;;;;;;;;;;5012985;28;20042;-73
2022/10/15 10:53:34;;;;;;;32.65;22.02;;;;;;;;;;5026925;28;20045;-73
2022/10/15 10:56:01;;;;;;;30.83;19.77;;;;;;;;;;5015480;28;20048;-73
2022/10/15 10:58:28;;;;;;;33.13;20.40;;;;;;;;;;5012430;28;20140;-73
2022/10/15 11:00:55;;;;;;;31.15;18.60;;;;;;;;;;5017107;28;20378;-73
2022/10/15 11:03:30;;;;;;;28.17;18.60;;;;;;;;;;5011317;28;20249;-73
2022/10/15 11:06:01;;;;;;;28.40;16.67;;;;;;;;;;5003497;28;20179;-73
2022/10/15 11:08:47;;;;;;;23.88;17.33;;;;;;;;;;5038692;28;20099;-73
2022/10/15 11:11:13;;;;;;;24.00;16.83;;;;;;;;;;4990509;28;20046;-73
2022/10/15 11:13:55;;;;;;;30.85;17.35;;;;;;;;;;5028689;28;20462;-73
2022/10/15 11:16:33;;;;;;;30.50;17.55;;;;;;;;;;5028577;28;20104;-73
2022/10/15 11:19:22;;;;;;;24.73;16.02;;;14.10;99.90;;;;;;5012127;28;20099;-73
2022/10/15 11:22:26;;;;;;;25.70;16.70;;;14.10;99.90;;;;;;5028672;28;20049;-73
2022/10/15 11:25:13;;;;;;;23.67;15.75;;;14.10;99.90;;;;;;5022622;28;20060;-73
2022/10/15 11:27:55;;;;;;;21.83;14.82;;;14.20;99.90;;;;;;5011850;28;20088;-73
2022/10/15 11:30:38;;;;;;;21.95;15.63;;;;;;;;;;5024482;28;20049;-73
2022/10/15 11:33:14;;;;;;;23.25;15.10;;;;;;;;;;5028174;28;20283;-73
2022/10/15 11:35:53;;;;;;;24.45;13.85;;;;;;;;;;5028583;28;20049;-73
2022/10/15 11:38:24;;;;;;;20.08;12.90;;;;;;;;;;5028204;28;20092;-73
2022/10/15 11:40:54;;;;;;;16.55;11.30;;;;;;;;;;5028091;28;20053;-73
2022/10/15 11:43:41;;;;;;;16.65;12.20;;;;;;;;;;5027833;28;20355;-73
2022/10/15 11:46:07;;;;;;;17.63;11.20;;;;;;;;;;5027543;28;20100;-73
2022/10/15 11:48:52;;;;;;;16.77;12.00;;;;;;;;;;5027900;28;20433;-73
2022/10/15 11:51:39;;;;;;;16.60;12.13;;;;;;;;;;5028467;28;20393;-73
2022/10/15 11:54:08;;;;;;;17.38;12.02;;;;;;;;;;5024835;28;20042;-73
2022/10/15 11:56:36;;;;;;;16.92;11.70;;;;;;;;;;5028115;28;20046;-73
2022/10/15 11:59:06;;;;;;;14.68;11.32;;;;;;;;;;5013015;28;20064;-73
2022/10/15 12:01:42;;;;;;;18.90;11.52;;;;;;;;;;5028377;28;20422;-73
2022/10/15 12:04:14;;;;;;;15.57;11.18;;;;;;;;;;5027963;28;20195;-73
2022/10/15 12:06:46;;;;;;;15.02;10.40;;;;;;;;;;5022078;28;20050;-73
2022/10/15 12:09:15;;;;;;;14.05;10.27;;;;;;;;;;5027854;28;20224;-73
2022/10/15 12:11:41;;;;;;;15.77;10.85;;;;;;;;;;5027736;28;20065;-73
2022/10/15 12:14:26;;;;;;;16.08;11.07;;;14.30;99.90;;;;;;5029462;28;20049;-73
2022/10/15 12:17:03;;;;;;;14.18;10.88;;;14.80;99.90;;;;;;5034395;28;20051;-73
2022/10/15 12:19:44;;;;;;;14.90;10.68;;;14.80;99.90;;;;;;5027589;28;20053;-73
2022/10/15 12:22:11;;;;;;;13.43;9.48;;;14.80;99.90;;;;;;5026280;28;20127;-73
2022/10/15 12:24:37;;;;;;;14.55;10.13;;;14.80;99.90;;;;;;5027793;28;20056;-73
2022/10/15 12:27:17;;;;;;;16.48;11.25;;;14.90;99.90;;;;;;5027403;28;20065;-73
2022/10/15 12:29:51;;;;;;;15.27;10.38;;;14.90;99.90;;;;;;5011299;28;20535;-73
2022/10/15 12:32:26;;;;;;;14.60;11.43;;;14.90;99.90;;;;;;5042592;28;20053;-73
2022/10/15 12:35:00;;;;;;;16.10;11.07;;;14.90;99.90;;;;;;5027499;28;20413;-73
2022/10/15 12:37:28;;;;;;;14.70;10.63;;;14.90;99.90;;;;;;5027424;28;20057;-73
2022/10/15 12:40:22;;;;;;;12.70;9.45;;;14.90;99.90;;;;;;5011010;28;20053;-73
2022/10/15 12:43:10;;;;;;;;;;;14.90;99.90;;;;;;5027662;28;20163;-73
2022/10/15 12:45:40;;;;;;;14.15;10.10;;;14.90;99.90;;;;;;5017853;28;20007;-73
2022/10/15 12:48:19;;;;;;;14.98;10.48;;;14.90;99.90;;;;;;5027011;28;20144;-73
2022/10/15 12:50:45;;;;;;;14.65;9.13;;;14.90;99.90;;;;;;5027529;28;20351;-73
2022/10/15 12:53:31;;;;;;;10.50;8.48;;;14.90;99.90;;;;;;5027164;28;20136;-73
2022/10/15 12:56:09;;;;;;;14.00;9.75;;;14.80;99.90;;;;;;5022733;28;20041;-73
2022/10/15 12:58:37;;;;;;;14.07;9.88;;;14.80;99.90;;;;;;5031354;28;20148;-73
2022/10/15 13:01:48;;;;;;;13.80;9.70;;;14.80;99.90;;;;;;5031672;28;20045;-73
2022/10/15 13:04:14;;;;;;;13.57;9.13;;;14.80;99.90;;;;;;5023780;28;20480;-73
2022/10/15 13:06:40;;;;;;;12.80;8.77;;;14.70;99.90;;;;;;5030869;28;20129;-73
2022/10/15 13:09:08;;;;;;;14.57;10.13;;;14.70;99.90;;;;;;5031193;28;20103;-73
2022/10/15 13:11:49;;;;;;;15.20;10.85;;;14.70;99.90;;;;;;5031044;28;20061;-73
2022/10/15 13:14:32;;;;;;;16.10;10.98;;;14.70;99.90;;;;;;5007716;28;20056;-73
2022/10/15 13:17:02;;;;;;;15.35;10.88;;;14.70;99.90;;;;;;5030244;28;20053;-73
2022/10/15 13:19:39;;;;;;;12.48;9.60;;;14.70;99.90;;;;;;5030132;28;20045;-73
2022/10/15 13:22:18;;;;;;;13.93;9.63;;;14.60;99.90;;;;;;5031311;28;20095;-73
2022/10/15 13:24:44;;;;;;;16.60;11.25;;;14.60;99.90;;;;;;5030406;28;20164;-73
2022/10/15 13:27:36;;;;;;;12.57;9.77;;;14.60;99.90;;;;;;4998006;28;20050;-73
2022/10/15 13:30:11;;;;;;;14.88;8.98;;;14.70;99.90;;;;;;5030670;28;20045;-73
2022/10/15 13:32:46;;;;;;;14.10;8.88;;;14.60;99.90;;;;;;5030527;28;20462;-73
2022/10/15 13:35:17;;;;;;;12.52;8.50;;;14.60;99.90;;;;;;5029032;28;20292;-73
2022/10/15 13:37:45;;;;;;;11.57;8.30;;;14.60;99.90;;;;;;5030525;28;20088;-73
2022/10/15 13:40:24;;;;;;;13.45;9.23;;;14.60;99.90;;;;;;5013928;28;20052;-73
2022/10/15 13:43:14;;;;;;;11.63;8.77;;;14.60;99.90;;;;;;5014059;28;20401;-73
2022/10/15 13:45:48;;;;;;;12.18;9.23;;;14.60;99.90;;;;;;5014428;28;20460;-73
2022/10/15 13:48:21;;;;;;;15.45;9.45;;;14.60;99.90;;;;;;5014050;28;20057;-73
2022/10/15 13:50:50;;;;;;;12.85;10.02;;;14.60;99.90;;;;;;5046481;28;20042;-73
2022/10/15 13:53:22;;;;;;;12.80;9.52;;;14.60;99.90;;;;;;5030246;28;20521;-73
2022/10/15 13:55:50;;;;;;;16.02;9.82;;;14.60;99.90;;;;;;5030511;28;20045;-73
2022/10/15 13:58:28;;;;;;;14.63;9.85;;;14.60;99.90;;;;;;5014199;28;20095;-73
2022/10/15 14:00:54;;;;;;;17.00;10.55;;;14.60;99.90;;;;;;5031072;28;20072;-73
2022/10/15 14:03:23;;;;;;;14.57;10.00;;;14.60;99.90;;;;;;5030442;28;20490;-73
2022/10/15 14:05:51;;;;;;;11.55;8.95;;;14.60;99.90;;;;;;5010464;28;20453;-73
2022/10/15 14:08:27;;;;;;;13.93;9.10;;;14.60;99.90;;;;;;5030401;28;20061;-72
2022/10/15 14:10:57;;;;;;;13.55;9.60;;;14.60;99.90;;;;;;5022910;28;20045;-73
2022/10/15 14:13:23;;;;;;;14.45;10.05;;;14.60;99.90;;;;;;5030799;28;20060;-73